Nautilus Survey — LIXR — position and weather

sailwx.info

Track history (hours):
 
Tides and Currents Weather Stations Pressure Air Temp Water Temp Dewpoint Dewpoint Depression Visibility Wind Speed Wind Dir Waves Ship Positions

Nautilus Survey

Last reported at 2016-Feb-10 21:33 UTC. Time now 2016-Feb-10 22:02 UTC.
Position N 66°22' E 012°22'.

Length 22 m; draft 2 m.

Type: Dredging. MMSI: 259464000.

Date/timePositionNaut miles runAvg speedWind from/ knotsBaromVisibWave heightAir tempDewpointWater temp
2016-Feb-10 21:33N 66°22' E 012°22'0 0.0
2016-Feb-10 20:33N 66°22' E 012°22'0 0.0
2016-Feb-10 19:33N 66°22' E 012°22'0 0.0
2016-Feb-10 18:33N 66°22' E 012°22'1 1.0
2016-Feb-10 17:34N 66°21' E 012°24'9 0.4
2016-Feb-09 15:04N 66°21' E 012°47'0 0.2
2016-Feb-09 14:33N 66°21' E 012°47'0 0.0
2016-Feb-09 13:34N 66°21' E 012°47'0 0.0
2016-Feb-09 12:33N 66°21' E 012°47'3 2.7
2016-Feb-09 11:26N 66°23' E 012°41'7 7.5
2016-Feb-09 10:34N 66°24' E 012°25'0 0.1
2016-Feb-09 09:33N 66°24' E 012°25'0 0.3
2016-Feb-09 08:34N 66°24' E 012°26'2 2.3
2016-Feb-09 07:34N 66°22' E 012°22'0 0.4
2016-Feb-09 06:33N 66°22' E 012°22'0 0.0
2016-Feb-09 05:33N 66°22' E 012°22'0 0.0
2016-Feb-09 04:33N 66°22' E 012°22'0 0.0
2016-Feb-09 03:33N 66°22' E 012°22'0 0.0
2016-Feb-09 02:33N 66°22' E 012°22'0 0.0
2016-Feb-09 01:33N 66°22' E 012°22'0 0.0
2016-Feb-09 00:33N 66°22' E 012°22'0 0.0
2016-Feb-08 23:33N 66°22' E 012°22'0 0.0
2016-Feb-08 22:33N 66°22' E 012°22'0 0.0
2016-Feb-08 21:33N 66°22' E 012°22'0 0.0
2016-Feb-08 20:33N 66°22' E 012°22'0 0.0
2016-Feb-08 19:33N 66°22' E 012°22'2 2.1
2016-Feb-08 18:33N 66°24' E 012°25'0 0.2
2016-Feb-08 17:33N 66°24' E 012°25'0 0.2
2016-Feb-08 16:33N 66°24' E 012°26'0 0.1
2016-Feb-08 15:33N 66°24' E 012°25'0 0.2
2016-Feb-08 14:33N 66°24' E 012°25'0 0.0
2016-Feb-08 13:33N 66°24' E 012°25'0 0.0
2016-Feb-08 12:33N 66°24' E 012°25'0 0.2
2016-Feb-08 11:34N 66°24' E 012°25'0 0.0
2016-Feb-08 10:33N 66°24' E 012°25'0 0.0
2016-Feb-08 09:33N 66°24' E 012°25'0 0.0
2016-Feb-08 08:33N 66°24' E 012°25'0 0.2
2016-Feb-08 07:34N 66°24' E 012°25'2 2.1
2016-Feb-08 06:33N 66°22' E 012°22'0 0.0
2016-Feb-08 05:33N 66°22' E 012°22'0 0.0
2016-Feb-08 04:33N 66°22' E 012°22'0 0.0
2016-Feb-08 03:33N 66°22' E 012°22'0 0.0
2016-Feb-08 02:33N 66°22' E 012°22'0 0.0
2016-Feb-08 01:33N 66°22' E 012°22'0 0.0
2016-Feb-08 00:33N 66°22' E 012°22'0 0.0
2016-Feb-07 23:33N 66°22' E 012°22'0 0.0
2016-Feb-07 22:33N 66°22' E 012°22'0 0.0
2016-Feb-07 21:33N 66°22' E 012°22'0 0.0
2016-Feb-07 20:33N 66°22' E 012°22'0 0.0
2016-Feb-07 19:33N 66°22' E 012°22'2 2.2
2016-Feb-07 18:33N 66°24' E 012°25'0 0.1
2016-Feb-07 17:34N 66°24' E 012°25'0 0.0
2016-Feb-07 16:33N 66°24' E 012°25'0 0.0
2016-Feb-07 15:33N 66°24' E 012°25'0 0.2
2016-Feb-07 14:34N 66°24' E 012°25'0 0.0
2016-Feb-07 13:33N 66°24' E 012°25'0 0.0
2016-Feb-07 12:33N 66°24' E 012°25'0 0.0
2016-Feb-07 11:34N 66°24' E 012°25'0 0.2
2016-Feb-07 10:34N 66°24' E 012°25'0 0.2
2016-Feb-07 09:34N 66°24' E 012°25'0 0.0
2016-Feb-07 08:33N 66°24' E 012°25'0 0.1
2016-Feb-07 07:34N 66°24' E 012°25'2 2.2
2016-Feb-07 06:33N 66°22' E 012°22'0 0.0
2016-Feb-07 05:33N 66°22' E 012°22'0 0.0
2016-Feb-07 04:33N 66°22' E 012°22'0 0.0
2016-Feb-07 03:33N 66°22' E 012°22'0 0.0
2016-Feb-07 02:33N 66°22' E 012°22'0 0.0
2016-Feb-07 01:33N 66°22' E 012°22'0 0.0
2016-Feb-07 00:33N 66°22' E 012°22'0 0.0
2016-Feb-06 23:33N 66°22' E 012°22'0 0.0
2016-Feb-06 22:33N 66°22' E 012°22'0 0.0
2016-Feb-06 21:33N 66°22' E 012°22'0 0.0
2016-Feb-06 20:33N 66°22' E 012°22'0 0.0
2016-Feb-06 19:33N 66°22' E 012°22'1 0.6
2016-Feb-06 18:33N 66°22' E 012°24'2 1.8
2016-Feb-06 17:33N 66°24' E 012°25'0 0.0
2016-Feb-06 16:33N 66°24' E 012°25'0 0.0
2016-Feb-06 15:34N 66°24' E 012°25'0 0.1
2016-Feb-06 14:33N 66°24' E 012°24'0 0.0
2016-Feb-06 13:33N 66°24' E 012°24'0 0.4
2016-Feb-06 12:33N 66°24' E 012°25'0 0.0
2016-Feb-06 11:33N 66°24' E 012°25'0 0.0
2016-Feb-06 10:33N 66°24' E 012°25'0 0.0
2016-Feb-06 09:33N 66°24' E 012°25'0 0.0
2016-Feb-06 08:33N 66°24' E 012°25'2 2.0
2016-Feb-06 07:34N 66°22' E 012°23'0 0.4
2016-Feb-06 06:33N 66°22' E 012°22'0 0.0
2016-Feb-06 05:33N 66°22' E 012°22'0 0.0
2016-Feb-06 04:33N 66°22' E 012°22'0 0.0
2016-Feb-06 03:33N 66°22' E 012°22'0 0.0
2016-Feb-06 02:33N 66°22' E 012°22'0 0.0
2016-Feb-06 01:33N 66°22' E 012°22'0 0.0
2016-Feb-06 00:33N 66°22' E 012°22'0 0.0
2016-Feb-05 23:33N 66°22' E 012°22'0 0.0
2016-Feb-05 22:33N 66°22' E 012°22'0 0.0
2016-Feb-05 21:33N 66°22' E 012°22'0 0.0
2016-Feb-05 20:33N 66°22' E 012°22'0 0.0
2016-Feb-05 19:33N 66°22' E 012°22'0 0.0
2016-Feb-05 18:33N 66°22' E 012°22'6 6.3
2016-Feb-05 17:33N 66°24' E 012°37'5 5.1
2016-Feb-05 16:33N 66°21' E 012°47'0 0.0
2016-Feb-05 15:17N 66°21' E 012°47'0 0.4
2016-Feb-05 14:30N 66°21' E 012°46'0 0.3
2016-Feb-05 13:07N 66°21' E 012°47'0 0.0
2016-Feb-05 12:29N 66°21' E 012°47'0 0.3
2016-Feb-05 11:23N 66°21' E 012°46'0 0.0
2016-Feb-05 10:11N 66°21' E 012°46'0 0.1
2016-Feb-05 09:34N 66°21' E 012°46'0 0.1
2016-Feb-05 08:33N 66°21' E 012°47'0 0.1
2016-Feb-05 07:33N 66°21' E 012°47'0 0.1
2016-Feb-05 06:33N 66°21' E 012°47'0 0.0
2016-Feb-05 05:33N 66°21' E 012°47'0 0.0
2016-Feb-05 04:33N 66°21' E 012°47'0 0.0
2016-Feb-05 03:33N 66°21' E 012°47'0 0.0
2016-Feb-05 02:33N 66°21' E 012°47'0 0.0
2016-Feb-05 01:33N 66°21' E 012°47'0 0.0
2016-Feb-05 00:33N 66°21' E 012°47'0 0.0
2016-Feb-04 23:33N 66°21' E 012°47'0 0.0
2016-Feb-04 22:33N 66°21' E 012°47'0 0.0
2016-Feb-04 21:33N 66°21' E 012°47'0 0.0
2016-Feb-04 20:33N 66°21' E 012°47'0 0.0
2016-Feb-04 19:32N 66°21' E 012°47'0 0.0
2016-Feb-04 18:33N 66°21' E 012°47'0 0.2
2016-Feb-04 17:33N 66°21' E 012°47'0 0.2
2016-Feb-04 16:33N 66°21' E 012°47'0 0.1
2016-Feb-04 14:28N 66°21' E 012°47'0 0.1
2016-Feb-04 13:11N 66°21' E 012°47'5 8.1
2016-Feb-04 12:33N 66°23' E 012°35'1 0.7
2016-Feb-04 11:33N 66°23' E 012°34'0 0.0
2016-Feb-04 10:33N 66°23' E 012°34'5 4.9
2016-Feb-04 09:33N 66°21' E 012°46'0 0.5
2016-Feb-04 08:33N 66°21' E 012°47'0 0.2
2016-Feb-04 07:33N 66°21' E 012°47'0 0.0
2016-Feb-04 06:33N 66°21' E 012°47'0 0.0
2016-Feb-04 05:33N 66°21' E 012°47'0 0.0
2016-Feb-04 04:33N 66°21' E 012°47'0 0.0
2016-Feb-04 03:33N 66°21' E 012°47'0 0.0
2016-Feb-04 02:33N 66°21' E 012°47'0 0.0
2016-Feb-04 01:33N 66°21' E 012°47'0 0.0
2016-Feb-04 00:33N 66°21' E 012°47'0 0.0
2016-Feb-03 23:33N 66°21' E 012°47'0 0.0
2016-Feb-03 22:33N 66°21' E 012°47'0 0.0
2016-Feb-03 21:33N 66°21' E 012°47'0 0.0
2016-Feb-03 20:33N 66°21' E 012°47'0 0.0
2016-Feb-03 19:32N 66°21' E 012°47'0 0.0
2016-Feb-03 18:22N 66°21' E 012°47'0 0.0
2016-Feb-03 16:33N 66°21' E 012°47'0 0.0
2016-Feb-03 15:33N 66°21' E 012°47'0 0.0
2016-Feb-03 14:28N 66°21' E 012°47'0 0.0
2016-Feb-03 13:33N 66°21' E 012°47'5 5.2
2016-Feb-03 12:33N 66°23' E 012°36'5 5.5
2016-Feb-03 11:33N 66°22' E 012°22'6 6.2
2016-Feb-03 10:33N 66°27' E 012°14'4 4.4
2016-Feb-03 09:33N 66°30' E 012°06'1 0.5
2016-Feb-03 08:33N 66°30' E 012°05'1 0.6
2016-Feb-03 07:33N 66°30' E 012°06'1 0.7
2016-Feb-03 06:33N 66°30' E 012°05'0 0.0
2016-Feb-03 05:33N 66°30' E 012°05'0 0.0
2016-Feb-03 04:33N 66°30' E 012°05'0 0.0
2016-Feb-03 03:33N 66°30' E 012°05'0 0.0
2016-Feb-03 02:33N 66°30' E 012°05'0 0.0
2016-Feb-03 01:33N 66°30' E 012°05'0 0.0
2016-Feb-03 00:33N 66°30' E 012°05'0 0.0
2016-Feb-02 23:33N 66°30' E 012°05'0 0.0
2016-Feb-02 22:33N 66°30' E 012°05'0 0.0
2016-Feb-02 21:33N 66°30' E 012°05'0 0.0
2016-Feb-02 20:33N 66°30' E 012°05'0 0.0
2016-Feb-02 19:33N 66°30' E 012°05'0 0.0
2016-Feb-02 18:33N 66°30' E 012°05'1 0.8
2016-Feb-02 17:34N 66°29' E 012°04'1 0.9
2016-Feb-02 16:33N 66°30' E 012°04'0 0.0
2016-Feb-02 15:33N 66°30' E 012°04'0 0.1
2016-Feb-02 14:33N 66°30' E 012°04'0 0.2
2016-Feb-02 13:33N 66°30' E 012°04'0 0.0
2016-Feb-02 12:33N 66°30' E 012°04'0 0.2
2016-Feb-02 11:33N 66°30' E 012°04'0 0.0
2016-Feb-02 10:33N 66°30' E 012°04'0 0.1
2016-Feb-02 09:34N 66°30' E 012°04'0 0.1
2016-Feb-02 08:33N 66°30' E 012°04'0 0.1
2016-Feb-02 07:34N 66°30' E 012°04'1 0.6
2016-Feb-02 06:33N 66°30' E 012°05'0 0.0
2016-Feb-02 05:33N 66°30' E 012°05'0 0.0
2016-Feb-02 04:33N 66°30' E 012°05'0 0.0
2016-Feb-02 03:33N 66°30' E 012°05'0 0.0
2016-Feb-02 02:33N 66°30' E 012°05'0 0.0
2016-Feb-02 01:33N 66°30' E 012°05'0 0.0
2016-Feb-02 00:33N 66°30' E 012°05'0 0.0
2016-Feb-01 23:33N 66°30' E 012°05'0 0.0
2016-Feb-01 22:33N 66°30' E 012°05'0 0.0
2016-Feb-01 21:33N 66°30' E 012°05'0 0.0
2016-Feb-01 20:33N 66°30' E 012°05'0 0.0
2016-Feb-01 19:33N 66°30' E 012°05'1 0.6
2016-Feb-01 18:33N 66°30' E 012°04'0 0.0
2016-Feb-01 17:33N 66°30' E 012°04'0 0.1
2016-Feb-01 16:34N 66°30' E 012°04'0 0.1
2016-Feb-01 15:33N 66°30' E 012°04'0 0.0
2016-Feb-01 14:33N 66°30' E 012°04'0 0.0
2016-Feb-01 13:33N 66°30' E 012°04'0 0.0
2016-Feb-01 12:33N 66°30' E 012°04'0 0.0
2016-Feb-01 11:34N 66°30' E 012°04'0 0.1
2016-Feb-01 10:34N 66°30' E 012°04'0 0.2
2016-Feb-01 09:33N 66°30' E 012°04'0 0.0
2016-Feb-01 08:33N 66°30' E 012°04'0 0.1
2016-Feb-01 07:34N 66°30' E 012°04'1 0.5
2016-Feb-01 06:33N 66°30' E 012°05'0 0.0
2016-Feb-01 05:33N 66°30' E 012°05'0 0.0
2016-Feb-01 04:33N 66°30' E 012°05'0 0.0
2016-Feb-01 03:33N 66°30' E 012°05'0 0.0
2016-Feb-01 02:33N 66°30' E 012°05'0 0.0
2016-Feb-01 01:33N 66°30' E 012°05'0 0.0
2016-Feb-01 00:33N 66°30' E 012°05'0 0.0
2016-Jan-31 23:33N 66°30' E 012°05'0 0.0
2016-Jan-31 22:33N 66°30' E 012°05'0 0.0
2016-Jan-31 21:33N 66°30' E 012°05'  
Track history (hours):
 
Tides and Currents Weather Stations Pressure Air Temp Water Temp Dewpoint Dewpoint Depression Visibility Wind Speed Wind Dir Waves Ship Positions

Nautilus Survey

Last reported at 2016-Feb-10 21:33 UTC. Time now 2016-Feb-10 22:02 UTC.
Position N 66°22' E 012°22'.

Length 22 m; draft 2 m.

Type: Dredging. MMSI: 259464000.

Date/timePositionNaut miles runAvg speedWind from/ knotsBaromVisibWave heightAir tempDewpointWater temp
2016-Feb-10 21:33N 66°22' E 012°22'0 0.0
2016-Feb-10 20:33N 66°22' E 012°22'0 0.0
2016-Feb-10 19:33N 66°22' E 012°22'0 0.0
2016-Feb-10 18:33N 66°22' E 012°22'1 1.0
2016-Feb-10 17:34N 66°21' E 012°24'9 0.4
2016-Feb-09 15:04N 66°21' E 012°47'0 0.2
2016-Feb-09 14:33N 66°21' E 012°47'0 0.0
2016-Feb-09 13:34N 66°21' E 012°47'0 0.0
2016-Feb-09 12:33N 66°21' E 012°47'3 2.7
2016-Feb-09 11:26N 66°23' E 012°41'7 7.5
2016-Feb-09 10:34N 66°24' E 012°25'0 0.1
2016-Feb-09 09:33N 66°24' E 012°25'0 0.3
2016-Feb-09 08:34N 66°24' E 012°26'2 2.3
2016-Feb-09 07:34N 66°22' E 012°22'0 0.4
2016-Feb-09 06:33N 66°22' E 012°22'0 0.0
2016-Feb-09 05:33N 66°22' E 012°22'0 0.0
2016-Feb-09 04:33N 66°22' E 012°22'0 0.0
2016-Feb-09 03:33N 66°22' E 012°22'0 0.0
2016-Feb-09 02:33N 66°22' E 012°22'0 0.0
2016-Feb-09 01:33N 66°22' E 012°22'0 0.0
2016-Feb-09 00:33N 66°22' E 012°22'0 0.0
2016-Feb-08 23:33N 66°22' E 012°22'0 0.0
2016-Feb-08 22:33N 66°22' E 012°22'0 0.0
2016-Feb-08 21:33N 66°22' E 012°22'0 0.0
2016-Feb-08 20:33N 66°22' E 012°22'0 0.0
2016-Feb-08 19:33N 66°22' E 012°22'2 2.1
2016-Feb-08 18:33N 66°24' E 012°25'0 0.2
2016-Feb-08 17:33N 66°24' E 012°25'0 0.2
2016-Feb-08 16:33N 66°24' E 012°26'0 0.1
2016-Feb-08 15:33N 66°24' E 012°25'0 0.2
2016-Feb-08 14:33N 66°24' E 012°25'0 0.0
2016-Feb-08 13:33N 66°24' E 012°25'0 0.0
2016-Feb-08 12:33N 66°24' E 012°25'0 0.2
2016-Feb-08 11:34N 66°24' E 012°25'0 0.0
2016-Feb-08 10:33N 66°24' E 012°25'0 0.0
2016-Feb-08 09:33N 66°24' E 012°25'0 0.0
2016-Feb-08 08:33N 66°24' E 012°25'0 0.2
2016-Feb-08 07:34N 66°24' E 012°25'2 2.1
2016-Feb-08 06:33N 66°22' E 012°22'0 0.0
2016-Feb-08 05:33N 66°22' E 012°22'0 0.0
2016-Feb-08 04:33N 66°22' E 012°22'0 0.0
2016-Feb-08 03:33N 66°22' E 012°22'0 0.0
2016-Feb-08 02:33N 66°22' E 012°22'0 0.0
2016-Feb-08 01:33N 66°22' E 012°22'0 0.0
2016-Feb-08 00:33N 66°22' E 012°22'0 0.0
2016-Feb-07 23:33N 66°22' E 012°22'0 0.0
2016-Feb-07 22:33N 66°22' E 012°22'0 0.0
2016-Feb-07 21:33N 66°22' E 012°22'0 0.0
2016-Feb-07 20:33N 66°22' E 012°22'0 0.0
2016-Feb-07 19:33N 66°22' E 012°22'2 2.2
2016-Feb-07 18:33N 66°24' E 012°25'0 0.1
2016-Feb-07 17:34N 66°24' E 012°25'0 0.0
2016-Feb-07 16:33N 66°24' E 012°25'0 0.0
2016-Feb-07 15:33N 66°24' E 012°25'0 0.2
2016-Feb-07 14:34N 66°24' E 012°25'0 0.0
2016-Feb-07 13:33N 66°24' E 012°25'0 0.0
2016-Feb-07 12:33N 66°24' E 012°25'0 0.0
2016-Feb-07 11:34N 66°24' E 012°25'0 0.2
2016-Feb-07 10:34N 66°24' E 012°25'0 0.2
2016-Feb-07 09:34N 66°24' E 012°25'0 0.0
2016-Feb-07 08:33N 66°24' E 012°25'0 0.1
2016-Feb-07 07:34N 66°24' E 012°25'2 2.2
2016-Feb-07 06:33N 66°22' E 012°22'0 0.0
2016-Feb-07 05:33N 66°22' E 012°22'0 0.0
2016-Feb-07 04:33N 66°22' E 012°22'0 0.0
2016-Feb-07 03:33N 66°22' E 012°22'0 0.0
2016-Feb-07 02:33N 66°22' E 012°22'0 0.0
2016-Feb-07 01:33N 66°22' E 012°22'0 0.0
2016-Feb-07 00:33N 66°22' E 012°22'0 0.0
2016-Feb-06 23:33N 66°22' E 012°22'0 0.0
2016-Feb-06 22:33N 66°22' E 012°22'0 0.0
2016-Feb-06 21:33N 66°22' E 012°22'0 0.0
2016-Feb-06 20:33N 66°22' E 012°22'0 0.0
2016-Feb-06 19:33N 66°22' E 012°22'1 0.6
2016-Feb-06 18:33N 66°22' E 012°24'2 1.8
2016-Feb-06 17:33N 66°24' E 012°25'0 0.0
2016-Feb-06 16:33N 66°24' E 012°25'0 0.0
2016-Feb-06 15:34N 66°24' E 012°25'0 0.1
2016-Feb-06 14:33N 66°24' E 012°24'0 0.0
2016-Feb-06 13:33N 66°24' E 012°24'0 0.4
2016-Feb-06 12:33N 66°24' E 012°25'0 0.0
2016-Feb-06 11:33N 66°24' E 012°25'0 0.0
2016-Feb-06 10:33N 66°24' E 012°25'0 0.0
2016-Feb-06 09:33N 66°24' E 012°25'0 0.0
2016-Feb-06 08:33N 66°24' E 012°25'2 2.0
2016-Feb-06 07:34N 66°22' E 012°23'0 0.4
2016-Feb-06 06:33N 66°22' E 012°22'0 0.0
2016-Feb-06 05:33N 66°22' E 012°22'0 0.0
2016-Feb-06 04:33N 66°22' E 012°22'0 0.0
2016-Feb-06 03:33N 66°22' E 012°22'0 0.0
2016-Feb-06 02:33N 66°22' E 012°22'0 0.0
2016-Feb-06 01:33N 66°22' E 012°22'0 0.0
2016-Feb-06 00:33N 66°22' E 012°22'0 0.0
2016-Feb-05 23:33N 66°22' E 012°22'0 0.0
2016-Feb-05 22:33N 66°22' E 012°22'0 0.0
2016-Feb-05 21:33N 66°22' E 012°22'0 0.0
2016-Feb-05 20:33N 66°22' E 012°22'0 0.0
2016-Feb-05 19:33N 66°22' E 012°22'0 0.0
2016-Feb-05 18:33N 66°22' E 012°22'6 6.3
2016-Feb-05 17:33N 66°24' E 012°37'5 5.1
2016-Feb-05 16:33N 66°21' E 012°47'0 0.0
2016-Feb-05 15:17N 66°21' E 012°47'0 0.4
2016-Feb-05 14:30N 66°21' E 012°46'0 0.3
2016-Feb-05 13:07N 66°21' E 012°47'0 0.0
2016-Feb-05 12:29N 66°21' E 012°47'0 0.3
2016-Feb-05 11:23N 66°21' E 012°46'0 0.0
2016-Feb-05 10:11N 66°21' E 012°46'0 0.1
2016-Feb-05 09:34N 66°21' E 012°46'0 0.1
2016-Feb-05 08:33N 66°21' E 012°47'0 0.1
2016-Feb-05 07:33N 66°21' E 012°47'0 0.1
2016-Feb-05 06:33N 66°21' E 012°47'0 0.0
2016-Feb-05 05:33N 66°21' E 012°47'0 0.0
2016-Feb-05 04:33N 66°21' E 012°47'0 0.0
2016-Feb-05 03:33N 66°21' E 012°47'0 0.0
2016-Feb-05 02:33N 66°21' E 012°47'0 0.0
2016-Feb-05 01:33N 66°21' E 012°47'0 0.0
2016-Feb-05 00:33N 66°21' E 012°47'0 0.0
2016-Feb-04 23:33N 66°21' E 012°47'0 0.0
2016-Feb-04 22:33N 66°21' E 012°47'0 0.0
2016-Feb-04 21:33N 66°21' E 012°47'0 0.0
2016-Feb-04 20:33N 66°21' E 012°47'0 0.0
2016-Feb-04 19:32N 66°21' E 012°47'0 0.0
2016-Feb-04 18:33N 66°21' E 012°47'0 0.2
2016-Feb-04 17:33N 66°21' E 012°47'0 0.2
2016-Feb-04 16:33N 66°21' E 012°47'0 0.1
2016-Feb-04 14:28N 66°21' E 012°47'0 0.1
2016-Feb-04 13:11N 66°21' E 012°47'5 8.1
2016-Feb-04 12:33N 66°23' E 012°35'1 0.7
2016-Feb-04 11:33N 66°23' E 012°34'0 0.0
2016-Feb-04 10:33N 66°23' E 012°34'5 4.9
2016-Feb-04 09:33N 66°21' E 012°46'0 0.5
2016-Feb-04 08:33N 66°21' E 012°47'0 0.2
2016-Feb-04 07:33N 66°21' E 012°47'0 0.0
2016-Feb-04 06:33N 66°21' E 012°47'0 0.0
2016-Feb-04 05:33N 66°21' E 012°47'0 0.0
2016-Feb-04 04:33N 66°21' E 012°47'0 0.0
2016-Feb-04 03:33N 66°21' E 012°47'0 0.0
2016-Feb-04 02:33N 66°21' E 012°47'0 0.0
2016-Feb-04 01:33N 66°21' E 012°47'0 0.0
2016-Feb-04 00:33N 66°21' E 012°47'0 0.0
2016-Feb-03 23:33N 66°21' E 012°47'0 0.0
2016-Feb-03 22:33N 66°21' E 012°47'0 0.0
2016-Feb-03 21:33N 66°21' E 012°47'0 0.0
2016-Feb-03 20:33N 66°21' E 012°47'0 0.0
2016-Feb-03 19:32N 66°21' E 012°47'0 0.0
2016-Feb-03 18:22N 66°21' E 012°47'0 0.0
2016-Feb-03 16:33N 66°21' E 012°47'0 0.0
2016-Feb-03 15:33N 66°21' E 012°47'0 0.0
2016-Feb-03 14:28N 66°21' E 012°47'0 0.0
2016-Feb-03 13:33N 66°21' E 012°47'5 5.2
2016-Feb-03 12:33N 66°23' E 012°36'5 5.5
2016-Feb-03 11:33N 66°22' E 012°22'6 6.2
2016-Feb-03 10:33N 66°27' E 012°14'4 4.4
2016-Feb-03 09:33N 66°30' E 012°06'1 0.5
2016-Feb-03 08:33N 66°30' E 012°05'1 0.6
2016-Feb-03 07:33N 66°30' E 012°06'1 0.7
2016-Feb-03 06:33N 66°30' E 012°05'0 0.0
2016-Feb-03 05:33N 66°30' E 012°05'0 0.0
2016-Feb-03 04:33N 66°30' E 012°05'0 0.0
2016-Feb-03 03:33N 66°30' E 012°05'0 0.0
2016-Feb-03 02:33N 66°30' E 012°05'0 0.0
2016-Feb-03 01:33N 66°30' E 012°05'0 0.0
2016-Feb-03 00:33N 66°30' E 012°05'0 0.0
2016-Feb-02 23:33N 66°30' E 012°05'0 0.0
2016-Feb-02 22:33N 66°30' E 012°05'0 0.0
2016-Feb-02 21:33N 66°30' E 012°05'0 0.0
2016-Feb-02 20:33N 66°30' E 012°05'0 0.0
2016-Feb-02 19:33N 66°30' E 012°05'0 0.0
2016-Feb-02 18:33N 66°30' E 012°05'1 0.8
2016-Feb-02 17:34N 66°29' E 012°04'1 0.9
2016-Feb-02 16:33N 66°30' E 012°04'0 0.0
2016-Feb-02 15:33N 66°30' E 012°04'0 0.1
2016-Feb-02 14:33N 66°30' E 012°04'0 0.2
2016-Feb-02 13:33N 66°30' E 012°04'0 0.0
2016-Feb-02 12:33N 66°30' E 012°04'0 0.2
2016-Feb-02 11:33N 66°30' E 012°04'0 0.0
2016-Feb-02 10:33N 66°30' E 012°04'0 0.1
2016-Feb-02 09:34N 66°30' E 012°04'0 0.1
2016-Feb-02 08:33N 66°30' E 012°04'0 0.1
2016-Feb-02 07:34N 66°30' E 012°04'1 0.6
2016-Feb-02 06:33N 66°30' E 012°05'0 0.0
2016-Feb-02 05:33N 66°30' E 012°05'0 0.0
2016-Feb-02 04:33N 66°30' E 012°05'0 0.0
2016-Feb-02 03:33N 66°30' E 012°05'0 0.0
2016-Feb-02 02:33N 66°30' E 012°05'0 0.0
2016-Feb-02 01:33N 66°30' E 012°05'0 0.0
2016-Feb-02 00:33N 66°30' E 012°05'0 0.0
2016-Feb-01 23:33N 66°30' E 012°05'0 0.0
2016-Feb-01 22:33N 66°30' E 012°05'0 0.0
2016-Feb-01 21:33N 66°30' E 012°05'0 0.0
2016-Feb-01 20:33N 66°30' E 012°05'0 0.0
2016-Feb-01 19:33N 66°30' E 012°05'1 0.6
2016-Feb-01 18:33N 66°30' E 012°04'0 0.0
2016-Feb-01 17:33N 66°30' E 012°04'0 0.1
2016-Feb-01 16:34N 66°30' E 012°04'0 0.1
2016-Feb-01 15:33N 66°30' E 012°04'0 0.0
2016-Feb-01 14:33N 66°30' E 012°04'0 0.0
2016-Feb-01 13:33N 66°30' E 012°04'0 0.0
2016-Feb-01 12:33N 66°30' E 012°04'0 0.0
2016-Feb-01 11:34N 66°30' E 012°04'0 0.1
2016-Feb-01 10:34N 66°30' E 012°04'0 0.2
2016-Feb-01 09:33N 66°30' E 012°04'0 0.0
2016-Feb-01 08:33N 66°30' E 012°04'0 0.1
2016-Feb-01 07:34N 66°30' E 012°04'1 0.5
2016-Feb-01 06:33N 66°30' E 012°05'0 0.0
2016-Feb-01 05:33N 66°30' E 012°05'0 0.0
2016-Feb-01 04:33N 66°30' E 012°05'0 0.0
2016-Feb-01 03:33N 66°30' E 012°05'0 0.0
2016-Feb-01 02:33N 66°30' E 012°05'0 0.0
2016-Feb-01 01:33N 66°30' E 012°05'0 0.0
2016-Feb-01 00:33N 66°30' E 012°05'0 0.0
2016-Jan-31 23:33N 66°30' E 012°05'0 0.0
2016-Jan-31 22:33N 66°30' E 012°05'0 0.0
2016-Jan-31 21:33N 66°30' E 012°05'  

Dump ship's entire track history